Time;durP1;ratioP1;P1;durP2;ratioP2;P2;SDS_P1;SDS_P2;PMS_P1;PMS_P2;Temp;Humidity;BMP_temperature;BMP_pressure;BME280_temperature;BME280_humidity;BME280_pressure;Samples;Min_cycle;Max_cycle;Signal;HPM_P1;HPM_P2
2022/06/27 00:00:09;;;;;;;50.35;21.90;;;;;;;16.49;100.00;101163.59;5052904;28;20086;-76
2022/06/27 00:02:36;;;;;;;52.88;20.70;;;;;;;16.73;100.00;101151.97;5051652;28;20025;-76
2022/06/27 00:05:03;;;;;;;57.38;21.23;;;;;;;16.64;100.00;101155.66;5052809;28;20488;-76
2022/06/27 00:07:28;;;;;;;58.47;22.83;;;;;;;16.64;100.00;101170.38;5051507;28;20044;-76
2022/06/27 00:09:54;;;;;;;58.28;23.95;;;;;;;16.63;100.00;101171.38;5051537;28;20037;-76
2022/06/27 00:12:20;;;;;;;51.65;21.23;;;;;;;16.75;100.00;101179.47;5051642;28;20484;-76
2022/06/27 00:14:45;;;;;;;51.33;22.60;;;;;;;16.67;100.00;101181.09;5052967;28;20393;-76
2022/06/27 00:17:10;;;;;;;53.85;22.80;;;;;;;16.70;100.00;101186.31;5051680;28;20400;-76
2022/06/27 00:19:37;;;;;;;56.25;22.65;;;;;;;16.66;100.00;101195.97;5051737;28;20036;-77
2022/06/27 00:22:04;;;;;;;51.10;22.92;;;;;;;16.66;100.00;101208.91;5051524;28;20040;-76
2022/06/27 00:24:30;;;;;;;53.95;23.85;;;;;;;16.76;100.00;101212.50;5052734;28;20501;-76
2022/06/27 00:26:55;;;;;;;46.85;22.55;;;;;;;16.78;100.00;101227.06;5051146;28;20418;-76
2022/06/27 00:29:21;;;;;;;53.30;23.27;;;;;;;16.73;100.00;101232.16;5052543;28;20064;-77
2022/06/27 00:31:47;;;;;;;46.63;22.25;;;;;;;16.78;100.00;101224.28;5051575;28;20373;-76
2022/06/27 00:34:12;;;;;;;49.88;23.45;;;;;;;16.71;100.00;101239.75;5052571;28;20079;-76
2022/06/27 00:36:38;;;;;;;52.65;23.05;;;;;;;16.65;100.00;101246.75;5051425;28;20033;-76
2022/06/27 00:39:03;;;;;;;43.92;22.35;;;;;;;16.79;100.00;101247.25;5051443;28;20052;-76
2022/06/27 00:41:29;;;;;;;53.35;22.77;;;;;;;16.78;100.00;101234.47;5051856;28;20044;-76
2022/06/27 00:43:54;;;;;;;63.95;23.17;;;;;;;16.89;100.00;101232.41;5056367;28;20029;-76
2022/06/27 00:46:21;;;;;;;47.97;22.83;;;;;;;16.81;100.00;101225.88;5056256;28;20369;-76
2022/06/27 00:48:47;;;;;;;44.40;20.85;;;;;;;16.85;100.00;101227.34;5056107;28;20401;-76
2022/06/27 00:51:12;;;;;;;56.58;23.08;;;;;;;16.96;100.00;101227.13;5056217;28;20033;-76
2022/06/27 00:53:38;;;;;;;52.80;22.98;;;;;;;16.92;100.00;101233.97;5056012;28;20043;-77
2022/06/27 00:56:05;;;;;;;51.15;22.98;;;;;;;16.82;100.00;101230.38;5054769;28;20032;-76
2022/06/27 00:58:30;;;;;;;50.35;22.88;;;;;;;16.86;100.00;101224.41;5056048;28;20412;-76
2022/06/27 01:00:56;;;;;;;56.30;23.25;;;;;;;16.80;100.00;101230.53;5038017;28;20036;-76
2022/06/27 01:03:21;;;;;;;50.90;21.85;;;;;;;16.83;100.00;101223.81;5055947;28;20040;-76
2022/06/27 01:05:53;;;;;;;60.05;23.70;;;;;;;16.73;100.00;101226.63;5055776;28;20117;-76
2022/06/27 01:08:21;;;;;;;59.17;23.17;;;;;;;16.69;100.00;101225.19;5054556;28;20040;-76
2022/06/27 01:10:48;;;;;;;51.45;22.58;;;;;;;16.76;100.00;101223.56;5055644;28;20025;-76
2022/06/27 01:13:14;;;;;;;59.45;23.45;;;;;;;16.78;100.00;101216.00;5055731;28;20484;-76
2022/06/27 01:15:44;;;;;;;50.58;22.60;;;;;;;16.83;100.00;101213.63;5054454;28;20037;-76
2022/06/27 01:18:10;;;;;;;58.58;23.42;;;;;;;16.78;100.00;101204.94;5055651;28;20033;-77
2022/06/27 01:20:36;;;;;;;50.65;21.65;;;;;;;16.83;100.00;101201.69;5037784;28;20040;-76
2022/06/27 01:23:02;;;;;;;57.53;22.67;;;;;;;16.75;100.00;101204.38;5055591;28;20041;-76
2022/06/27 01:25:28;;;;;;;55.78;23.95;;;;;;;16.64;100.00;101195.25;5055512;28;20028;-76
2022/06/27 01:27:54;;;;;;;57.92;24.90;;;;;;;16.57;100.00;101196.00;5055269;28;20510;-77
2022/06/27 01:30:21;;;;;;;50.67;23.88;;;;;;;16.66;100.00;101187.66;5054231;28;20151;-76
2022/06/27 01:32:49;;;;;;;46.65;22.75;;;;;;;16.69;100.00;101184.59;5054430;28;20025;-76
2022/06/27 01:35:15;;;;;;;50.28;23.73;;;;;;;16.56;100.00;101184.09;5055450;28;20082;-76
2022/06/27 01:37:41;;;;;;;56.00;24.05;;;;;;;16.58;100.00;101176.50;5055296;28;20041;-76
2022/06/27 01:40:08;;;;;;;50.60;23.75;;;;;;;16.64;100.00;101192.50;5053892;28;20040;-76
2022/06/27 01:42:34;;;;;;;50.95;24.73;;;;;;;16.68;100.00;101187.53;5037651;28;20385;-76
2022/06/27 01:45:00;;;;;;;56.88;24.77;;;;;;;16.71;100.00;101182.56;5055239;28;20040;-76
2022/06/27 01:47:27;;;;;;;53.45;24.58;;;;;;;16.70;100.00;101174.41;5053950;28;20041;-76
2022/06/27 01:49:53;;;;;;;59.08;24.40;;;;;;;16.64;100.00;101177.78;5053762;28;20404;-76
2022/06/27 01:52:19;;;;;;;62.42;24.38;;;;;;;16.69;100.00;101178.19;5053689;28;20021;-76
2022/06/27 01:54:45;;;;;;;57.00;23.52;;;;;;;16.69;100.00;101176.31;5036561;28;20040;-76
2022/06/27 01:57:10;;;;;;;64.57;26.00;;;;;;;16.64;100.00;101175.00;5037015;28;20036;-76
2022/06/27 01:59:36;;;;;;;65.40;26.50;;;;;;;16.62;100.00;101171.53;5054842;28;20036;-77
2022/06/27 02:02:04;;;;;;;62.45;24.88;;;;;;;16.61;100.00;101178.06;5054812;28;20140;-76
2022/06/27 02:04:31;;;;;;;55.83;25.55;;;;;;;16.64;100.00;101177.78;5054729;28;20037;-76
2022/06/27 02:06:58;;;;;;;67.38;25.80;;;;;;;16.63;100.00;101174.16;5053514;28;20025;-76
2022/06/27 02:09:25;;;;;;;59.30;25.77;;;;;;;16.61;100.00;101176.22;5054472;28;20033;-76
2022/06/27 02:11:51;;;;;;;58.55;26.02;;;;;;;16.55;100.00;101165.75;5054644;28;20160;-76
2022/06/27 02:14:18;;;;;;;65.75;26.10;;;;;;;16.58;100.00;101156.25;5054683;28;20036;-76
2022/06/27 02:16:44;;;;;;;64.95;26.13;;;;;;;16.73;100.00;101151.97;5054910;28;20388;-76
2022/06/27 02:19:14;;;;;;;50.63;24.67;;;;;;;16.67;100.00;101161.75;5036675;28;20120;-76
2022/06/27 02:21:41;;;;;;;61.88;26.23;;;;;;;16.63;100.00;101163.09;5054450;28;20033;-76
2022/06/27 02:24:07;;;;;;;56.30;25.65;;;;;;;16.61;100.00;101154.09;5053050;28;20033;-76
2022/06/27 02:26:33;;;;;;;52.00;24.35;;;;;;;16.61;100.00;101140.25;5052891;28;20460;-76
2022/06/27 02:29:00;;;;;;;59.53;25.08;;;;;;;16.53;100.00;101142.94;5036326;28;20063;-76
2022/06/27 02:31:26;;;;;;;60.70;26.52;;;;;;;16.48;100.00;101145.28;5053166;28;20063;-76
2022/06/27 02:33:53;;;;;;;54.30;25.45;;;;;;;16.42;100.00;101152.28;5052915;28;20068;-76
2022/06/27 02:36:24;;;;;;;57.65;26.15;;;;;;;16.39;100.00;101144.28;5054162;28;20032;-76
2022/06/27 02:38:52;;;;;;;60.85;26.15;;;;;;;16.46;100.00;101134.38;5054180;28;20061;-76
2022/06/27 02:41:20;;;;;;;63.47;25.73;;;;;;;16.45;100.00;101131.78;5054536;28;20040;-76
2022/06/27 02:43:47;;;;;;;63.72;26.30;;;;;;;16.44;100.00;101130.00;5054059;28;20515;-76
2022/06/27 02:46:13;;;;;;;63.75;27.50;;;;;;;16.34;100.00;101114.34;5052658;28;20127;-76
2022/06/27 02:48:40;;;;;;;64.93;26.63;;;;;;;16.34;100.00;101114.34;5036035;28;20516;-76
2022/06/27 02:51:09;;;;;;;56.95;26.08;;;;;;;16.30;100.00;101106.53;5052762;28;20087;-76
2022/06/27 02:53:57;;;;;;;60.03;26.77;;;;;;;16.22;100.00;101110.06;5053978;28;20492;-76
2022/06/27 02:56:26;;;;;;;62.72;26.50;;;;;;;16.13;100.00;101109.09;5052659;28;20025;-76
2022/06/27 02:59:00;;;;;;;65.78;27.50;;;;;;;16.17;100.00;101109.63;5052393;28;20111;-76
2022/06/27 03:01:26;;;;;;;68.97;28.80;;;;;;;16.19;100.00;101115.88;5053691;28;20112;-76
2022/06/27 03:03:53;;;;;;;69.57;28.58;;;;;;;16.15;100.00;101100.59;5053633;28;20503;-76
2022/06/27 03:06:19;;;;;;;67.20;29.80;;;;;;;16.11;100.00;101099.19;5052639;28;20036;-76
2022/06/27 03:08:46;;;;;;;66.78;28.85;;;;;;;16.08;100.00;101097.59;5052182;28;20033;-76
2022/06/27 03:11:15;;;;;;;71.93;29.33;;;;;;;15.98;100.00;101105.91;5053430;28;20039;-76
2022/06/27 03:13:42;;;;;;;60.55;28.80;;;;;;;15.97;100.00;101100.53;5052238;28;20524;-76
2022/06/27 03:16:08;;;;;;;73.10;29.30;;;;;;;15.89;100.00;101092.13;5035839;28;20033;-76
2022/06/27 03:18:34;;;;;;;65.85;30.17;;;;;;;15.85;100.00;101096.22;5052124;28;20503;-76
2022/06/27 03:21:00;;;;;;;76.63;30.08;;;;;;;15.83;100.00;101090.84;5035635;28;20033;-76
2022/06/27 03:23:27;;;;;;;70.72;30.20;;;;;;;15.75;100.00;101088.81;5052129;28;20037;-76
2022/06/27 03:25:53;;;;;;;73.70;29.25;;;;;;;15.70;100.00;101084.75;5051816;28;20110;-76
2022/06/27 03:28:19;;;;;;;65.25;28.15;;;;;;;15.58;100.00;101087.69;5035254;28;20049;-76
2022/06/27 03:30:45;;;;;;;71.85;28.50;;;;;;;15.61;100.00;101086.53;5035563;28;20072;-76
2022/06/27 03:33:11;;;;;;;70.90;29.58;;;;;;;15.62;100.00;101080.84;5053244;28;20068;-76
2022/06/27 03:35:36;;;;;;;75.95;29.83;;;;;;;15.58;100.00;101071.13;5051979;28;20029;-76
2022/06/27 03:38:02;;;;;;;65.75;30.02;;;;;;;15.40;100.00;101071.03;5053139;28;20029;-76
2022/06/27 03:40:28;;;;;;;72.57;30.15;;;;;;;15.31;100.00;101063.63;5051948;28;20028;-76
2022/06/27 03:42:53;;;;;;;72.93;29.55;;;;;;;15.37;100.00;101063.03;5035212;28;20124;-76
2022/06/27 03:45:19;;;;;;;78.00;31.17;;;;;;;15.32;100.00;101068.13;5053288;28;20079;-76
2022/06/27 03:47:50;;;;;;;75.78;31.83;;;;;;;15.36;100.00;101083.34;5035605;28;20037;-76
2022/06/27 03:50:19;;;;;;;71.43;29.40;;;;;;;15.49;100.00;101090.47;5053170;28;20488;-76
2022/06/27 03:52:45;;;;;;;75.72;31.00;;;;;;;15.40;100.00;101108.78;5035755;28;20388;-76
2022/06/27 03:55:11;;;;;;;67.82;30.17;;;;;;;15.42;100.00;101102.09;5052988;28;20469;-76
2022/06/27 03:57:38;;;;;;;73.45;30.90;;;;;;;15.41;100.00;101097.59;5051796;28;20044;-76
2022/06/27 04:00:08;;;;;;;75.65;30.83;;;;;;;15.26;100.00;101096.31;5053018;28;20039;-76
2022/06/27 04:02:35;;;;;;;79.70;31.05;;;;;;;15.15;100.00;101100.09;5051861;28;20025;-76
2022/06/27 04:05:04;;;;;;;85.63;33.63;;;;;;;15.20;100.00;101111.56;5053179;28;20124;-76
2022/06/27 04:07:30;;;;;;;81.45;33.10;;;;;;;15.41;100.00;101105.88;5051507;28;20025;-76
2022/06/27 04:09:57;;;;;;;81.30;32.47;;;;;;;15.42;100.00;101110.38;5051557;28;20037;-76
2022/06/27 04:12:23;;;;;;;75.53;32.15;;;;;;;15.35;100.00;101116.63;5052787;28;20500;-76
2022/06/27 04:14:49;;;;;;;81.10;33.75;;;;;;;15.34;100.00;101129.53;5051534;28;20033;-76
2022/06/27 04:17:15;;;;;;;88.25;36.25;;;;;;;15.52;100.00;101124.16;5054722;28;20036;-76
2022/06/27 04:19:41;;;;;;;79.90;33.50;;;;;;;15.66;100.00;101111.81;5056811;28;20384;-76
2022/06/27 04:22:08;;;;;;;77.22;34.88;;;;;;;15.79;100.00;101092.19;5055467;28;20032;-76
2022/06/27 04:24:35;;;;;;;88.82;34.25;;;;;;;15.85;100.00;101101.75;5056656;28;20033;-76
2022/06/27 04:27:01;;;;;;;85.30;36.78;;;;;;;15.96;100.00;101110.72;5038070;28;20102;-77
2022/06/27 04:29:26;;;;;;;85.05;34.80;;;;;;;16.01;100.00;101101.13;5055227;28;20045;-77
2022/06/27 04:31:52;;;;;;;88.13;35.65;;;;;;;15.95;100.00;101102.59;5056637;28;20025;-77
2022/06/27 04:34:18;;;;;;;83.43;33.10;;;;;;;16.03;100.00;101101.84;5055435;28;20396;-77
2022/06/27 04:36:45;;;;;;;90.38;36.90;;;;;;;15.99;100.00;101093.00;5055264;28;20036;-77
2022/06/27 04:39:15;;;;;;;84.18;38.00;;;;;;;15.99;100.00;101098.50;5055260;28;20126;-77
2022/06/27 04:41:44;;;;;;;96.00;41.47;;;;;;;16.03;100.00;101085.28;5038668;28;20480;-77
2022/06/27 04:44:11;;;;;;;118.07;43.78;;;;;;;16.04;100.00;101075.97;5055224;28;20373;-77
2022/06/27 04:46:38;;;;;;;108.15;44.00;;;;;;;16.19;100.00;101081.88;5056269;28;20032;-77
2022/06/27 04:49:05;;;;;;;94.55;43.33;;;;;;;16.20;100.00;101078.94;5056116;28;20042;-77
2022/06/27 04:51:30;;;;;;;89.28;42.00;;;;;;;16.31;100.00;101058.50;5054947;28;20055;-77
2022/06/27 04:53:56;;;;;;;104.50;45.13;;;;;;;16.28;100.00;101062.47;5054834;28;20025;-77
2022/06/27 04:56:22;;;;;;;100.13;46.83;;;;;;;16.32;100.00;101063.88;5056076;28;20124;-77
2022/06/27 04:58:47;;;;;;;105.85;44.97;;;;;;;16.22;100.00;101071.38;5054869;28;20044;-77
2022/06/27 05:01:13;;;;;;;116.38;46.47;;;;;;;16.32;100.00;101069.41;5056062;28;20388;-77
2022/06/27 05:03:38;;;;;;;104.30;43.58;;;;;;;16.24;100.00;101065.69;5054694;28;20033;-77
2022/06/27 05:06:04;;;;;;;97.03;41.63;;;;;;;16.34;100.00;101067.34;5054713;28;20021;-77
2022/06/27 05:08:31;;;;;;;94.65;41.30;;;;;;;16.31;100.00;101062.13;5054512;28;20112;-77
2022/06/27 05:10:57;;;;;;;110.38;44.13;;;;;;;16.36;100.00;101058.91;5054541;28;20033;-77
2022/06/27 05:13:23;;;;;;;89.43;41.50;;;;;;;16.48;100.00;101065.13;5055846;28;20048;-77
2022/06/27 05:15:48;;;;;;;99.13;45.35;;;;;;;16.40;100.00;101059.47;5054481;28;20396;-77
2022/06/27 05:18:15;;;;;;;113.38;44.28;;;;;;;16.26;100.00;101056.22;5037895;28;20040;-77
2022/06/27 05:20:42;;;;;;;99.57;42.63;;;;;;;16.34;100.00;101048.00;5054512;28;20080;-77
2022/06/27 05:23:08;;;;;;;110.18;48.28;;;;;;;16.33;100.00;101048.16;5054463;28;20041;-77
2022/06/27 05:25:33;;;;;;;103.65;45.58;;;;;;;16.35;100.00;101044.25;5054304;28;20052;-77
2022/06/27 05:28:02;;;;;;;116.15;46.50;;;;;;;16.40;100.00;101051.19;5036596;28;20041;-77
2022/06/27 05:30:28;;;;;;;102.35;46.97;;;;;;;16.42;100.00;101055.53;5054061;28;20037;-77
2022/06/27 05:32:54;;;;;;;108.03;46.10;;;;;;;16.38;100.00;101061.53;5054045;28;20025;-77
2022/06/27 05:35:20;;;;;;;101.90;46.00;;;;;;;16.40;100.00;101074.19;5054039;28;20048;-77
2022/06/27 05:37:46;;;;;;;103.63;45.78;;;;;;;16.46;100.00;101069.91;5037751;28;20480;-77
2022/06/27 05:40:11;;;;;;;98.63;45.30;;;;;;;16.49;100.00;101088.97;5055290;28;20051;-78
2022/06/27 05:42:37;;;;;;;95.60;43.25;;;;;;;16.48;100.00;101110.22;5055105;28;20040;-77
2022/06/27 05:45:04;;;;;;;110.28;45.97;;;;;;;16.62;100.00;101130.94;5055136;28;20037;-77
2022/06/27 05:47:30;;;;;;;95.75;43.78;;;;;;;16.84;100.00;101140.72;5055475;28;20039;-77
2022/06/27 05:49:56;;;;;;;95.03;41.80;;;;;;;16.97;100.00;101139.47;5053698;28;20033;-77
2022/06/27 05:52:22;;;;;;;98.22;42.95;;;;;;;17.09;100.00;101150.16;5053773;28;20124;-77
2022/06/27 05:54:48;;;;;;;100.93;41.00;;;;;;;17.18;100.00;101148.34;5053831;28;20060;-77
2022/06/27 05:57:15;;;;;;;90.32;39.53;;;;;;;17.23;100.00;101150.63;5037092;28;20033;-77
2022/06/27 05:59:41;;;;;;;92.22;40.25;;;;;;;17.17;100.00;101156.81;5054930;28;20086;-77
2022/06/27 06:02:07;;;;;;;82.40;39.13;;;;;;;17.07;100.00;101160.53;5053635;28;20112;-77
2022/06/27 06:04:33;;;;;;;96.05;39.92;;;;;;;17.05;100.00;101151.53;5054794;28;20100;-77
2022/06/27 06:06:59;;;;;;;98.60;40.25;;;;;;;16.94;100.00;101162.81;5053594;28;20033;-77
2022/06/27 06:09:25;;;;;;;89.65;41.20;;;;;;;16.97;100.00;101170.78;5053339;28;20037;-77
2022/06/27 06:11:51;;;;;;;89.05;41.45;;;;;;;16.99;100.00;101187.25;5054664;28;20051;-77
2022/06/27 06:14:19;;;;;;;95.18;41.15;;;;;;;16.90;100.00;101177.94;5054633;28;20476;-77
2022/06/27 06:16:45;;;;;;;91.95;42.05;;;;;;;16.87;100.00;101172.72;5054582;28;20040;-77
2022/06/27 06:19:11;;;;;;;89.13;39.08;;;;;;;16.85;100.00;101172.03;5037098;28;20025;-77
2022/06/27 06:21:38;;;;;;;86.28;39.38;;;;;;;16.87;100.00;101161.66;5054533;28;20025;-77
2022/06/27 06:24:04;;;;;;;88.15;40.10;;;;;;;16.83;100.00;101162.97;5053189;28;20067;-77
2022/06/27 06:26:29;;;;;;;106.72;42.38;;;;;;;16.83;100.00;101179.56;5036499;28;20077;-77
2022/06/27 06:28:55;;;;;;;102.80;42.13;;;;;;;16.84;100.00;101197.91;5036685;28;20036;-76
2022/06/27 06:31:22;;;;;;;103.88;42.38;;;;;;;16.88;100.00;101211.28;5054321;28;20429;-77
2022/06/27 06:33:53;;;;;;;97.63;41.22;;;;;;;16.94;100.00;101226.44;5036432;28;20044;-77
2022/06/27 06:36:21;;;;;;;96.53;42.42;;;;;;;16.99;100.00;101224.06;5053165;28;20526;-76
2022/06/27 06:38:47;;;;;;;110.63;41.70;;;;;;;17.05;100.00;101217.03;5052946;28;20032;-76
2022/06/27 06:41:14;;;;;;;104.40;42.90;;;;;;;17.02;100.00;101220.09;5054045;28;20492;-77
2022/06/27 06:43:40;;;;;;;103.50;42.28;;;;;;;17.09;100.00;101213.78;5052894;28;20107;-77
2022/06/27 06:46:06;;;;;;;101.72;45.28;;;;;;;17.07;100.00;101202.03;5036266;28;20111;-76
2022/06/27 06:48:32;;;;;;;98.00;40.45;;;;;;;17.19;100.00;101180.53;5036026;28;20151;-77
2022/06/27 06:50:58;;;;;;;102.85;42.50;;;;;;;17.15;100.00;101167.16;5036033;28;20033;-77
2022/06/27 06:53:23;;;;;;;97.22;43.03;;;;;;;17.22;100.00;101144.25;5035968;28;20033;-76
2022/06/27 06:55:50;;;;;;;96.90;44.10;;;;;;;17.19;100.00;101129.84;5053835;28;20094;-77
2022/06/27 06:58:17;;;;;;;108.95;47.08;;;;;;;17.12;100.00;101115.78;5052657;28;20021;-77
2022/06/27 07:00:43;;;;;;;102.65;46.63;;;;;;;17.17;100.00;101090.41;5052913;28;20116;-77
2022/06/27 07:03:10;;;;;;;117.03;47.55;;;;;;;17.20;100.00;101087.31;5052620;28;20112;-76
2022/06/27 07:05:37;;;;;;;106.05;46.78;;;;;;;17.22;100.00;101104.63;5052239;28;20064;-77
2022/06/27 07:08:04;;;;;;;102.55;45.28;;;;;;;17.21;100.00;101117.59;5035728;28;20388;-76
2022/06/27 07:10:30;;;;;;;105.93;46.40;;;;;;;17.21;100.00;101136.09;5052313;28;20036;-77
2022/06/27 07:12:56;;;;;;;108.90;47.40;;;;;;;17.27;100.00;101143.78;5052247;28;20041;-76
2022/06/27 07:15:21;;;;;;;110.40;49.80;;;;;;;17.25;100.00;101145.84;5053475;28;20481;-77
2022/06/27 07:17:49;;;;;;;105.63;45.97;;;;;;;17.24;100.00;101127.47;5053400;28;20040;-77
2022/06/27 07:20:19;;;;;;;109.22;47.38;;;;;;;17.50;100.00;101127.53;5052249;28;20079;-77
2022/06/27 07:22:45;;;;;;;102.20;46.95;;;;;;;17.40;100.00;101122.09;5053294;28;20044;-76
2022/06/27 07:25:11;;;;;;;100.93;46.60;;;;;;;17.45;100.00;101138.22;5053274;28;20392;-76
2022/06/27 07:27:39;;;;;;;100.13;44.90;;;;;;;17.66;100.00;101171.13;5051766;28;20052;-77
2022/06/27 07:30:06;;;;;;;99.90;45.42;;;;;;;17.73;100.00;101172.19;5051972;28;20025;-77
2022/06/27 07:32:32;;;;;;;91.55;42.65;;;;;;;18.02;100.00;101171.09;5035576;28;20040;-76
2022/06/27 07:34:59;;;;;;;97.82;44.42;;;;;;;18.03;100.00;101169.16;5035382;28;20033;-77
2022/06/27 07:37:25;;;;;;;93.90;44.65;;;;;;;18.13;100.00;101169.91;5035328;28;20555;-77
2022/06/27 07:39:51;;;;;;;83.13;39.47;;;;;;;18.02;100.00;101175.72;5051834;28;20407;-77
2022/06/27 07:42:16;;;;;;;87.97;41.13;;;;;;;18.00;100.00;101174.00;5052376;28;20037;-77
2022/06/27 07:44:42;;;;;;;75.32;38.97;;;;;;;18.10;100.00;101162.81;5018780;28;20041;-77
2022/06/27 07:47:09;;;;;;;90.38;40.38;;;;;;;18.21;100.00;101161.66;5052981;28;20033;-77
2022/06/27 07:49:34;;;;;;;98.88;44.20;;;;;;;18.42;100.00;101161.25;5051620;28;20404;-77
2022/06/27 07:52:00;;;;;;;90.25;41.58;;;;;;;18.61;100.00;101162.91;5034555;28;20029;-77
2022/06/27 07:54:27;;;;;;;83.35;39.88;;;;;;;18.62;100.00;101175.72;5051684;28;20029;-77
2022/06/27 07:56:53;;;;;;;89.40;41.05;;;;;;;18.63;100.00;101201.59;5052851;28;20031;-77
2022/06/27 07:59:19;;;;;;;87.43;41.72;;;;;;;18.60;100.00;101224.97;5052919;28;20037;-76
2022/06/27 08:01:45;;;;;;;81.97;41.75;;;;;;;18.62;100.00;101238.66;5051914;28;20029;-76
2022/06/27 08:04:14;;;;;;;93.95;42.50;;;;;;;18.56;100.00;101234.63;5052900;28;20116;-77
2022/06/27 08:06:41;;;;;;;72.25;35.88;;;;;;;18.66;100.00;101245.59;5053047;28;20472;-77
2022/06/27 08:09:08;;;;;;;89.38;39.72;;;;;;;18.62;100.00;101238.66;5052639;28;20492;-77
2022/06/27 08:11:36;;;;;;;90.60;39.78;;;;;;;18.68;100.00;101232.47;5035143;28;20040;-76
2022/06/27 08:14:13;;;;;;;87.35;39.67;;;;;;;18.67;100.00;101230.72;5052990;28;20517;-77
2022/06/27 08:16:40;;;;;;;93.97;39.90;;;;;;;18.71;100.00;101257.09;5051634;28;20025;-77
2022/06/27 08:19:08;;;;;;;80.53;39.70;;;;;;;19.00;100.00;101253.09;5052827;28;20033;-77
2022/06/27 08:21:35;;;;;;;75.85;37.00;;;;;;;19.32;100.00;101251.50;5051602;28;20041;-77
2022/06/27 08:24:07;;;;;;;83.57;37.20;;;;;;;19.44;100.00;101239.88;5051388;28;20037;-77
2022/06/27 08:26:34;;;;;;;75.38;35.22;;;;;;;19.21;100.00;101244.34;5051234;28;20049;-77
2022/06/27 08:29:02;;;;;;;77.63;36.30;;;;;;;19.23;100.00;101251.47;5051331;28;20423;-77
2022/06/27 08:31:30;;;;;;;77.63;35.13;;;;;;;19.16;100.00;101250.38;5051495;28;20036;-77
2022/06/27 08:33:58;;;;;;;78.32;34.03;;;;;;;19.07;100.00;101256.94;5051347;28;20041;-77
2022/06/27 08:36:27;;;;;;;71.43;34.17;;;;;;;19.44;100.00;101259.31;5051166;28;20454;-77
2022/06/27 08:38:53;;;;;;;74.90;32.22;;;;;;;19.25;100.00;101259.59;5035324;28;20041;-77
2022/06/27 08:41:21;;;;;;;77.88;34.20;;;;;;;19.01;100.00;101264.03;5051272;28;20476;-77
2022/06/27 08:43:48;;;;;;;75.18;32.80;;;;;;;18.88;100.00;101271.97;5051312;28;20093;-77
2022/06/27 08:46:16;;;;;;;62.67;28.65;;;;;;;19.10;100.00;101267.69;5052451;28;20087;-77
2022/06/27 08:48:45;;;;;;;57.83;29.33;;;;;;;19.16;100.00;101257.84;5052349;28;20051;-77
2022/06/27 08:51:12;;;;;;;63.17;31.23;;;;;;;19.25;100.00;101256.81;5051304;28;20029;-77
2022/06/27 08:53:38;;;;;;;64.95;30.63;;;;;;;19.44;100.00;101269.56;5051044;28;20029;-77
2022/06/27 08:56:05;;;;;;;75.70;33.20;;;;;;;19.14;100.00;101269.13;5051351;28;20066;-77
2022/06/27 08:58:31;;;;;;;70.55;31.52;;;;;;;19.34;100.00;101271.63;5034637;28;20032;-77
2022/06/27 09:00:57;;;;;;;75.22;33.50;;;;;;;19.40;100.00;101270.94;5051290;28;20037;-77
2022/06/27 09:03:24;;;;;;;53.15;27.15;;;;;;;19.26;100.00;101269.69;5052701;28;20040;-77
2022/06/27 09:05:58;;;;;;;66.13;28.80;;;;;;;19.58;100.00;101273.59;5037960;28;20024;-77
2022/06/27 09:08:31;;;;;;;61.85;27.15;;;;;;;19.50;100.00;101282.78;5055787;28;20025;-77
2022/06/27 09:10:59;;;;;;;62.22;29.63;;;;;;;19.41;100.00;101281.00;5054752;28;20528;-77
2022/06/27 09:13:26;;;;;;;56.50;25.88;;;;;;;19.46;100.00;101278.56;5055690;28;20068;-77
2022/06/27 09:16:03;;;;;;;55.55;23.02;;;;;;;19.45;100.00;101291.59;5054561;28;20040;-77
2022/06/27 09:18:35;;;;;;;51.63;22.23;;;;;;;19.56;100.00;101282.09;5054466;28;20033;-77
2022/06/27 09:21:07;;;;;;;48.58;21.90;;;;;;;19.40;100.00;101277.38;5037899;28;20025;-77
2022/06/27 09:23:49;;;;;;;52.45;21.20;;;;;;;19.45;100.00;101269.38;5054534;28;20090;-77
2022/06/27 09:26:25;;;;;;;54.90;23.38;;;;;;;19.52;100.00;101277.91;5055235;28;20091;-77
2022/06/27 09:29:04;;;;;;;46.60;23.88;;;;;;;19.59;100.00;101273.41;5054212;28;20435;-77
2022/06/27 09:31:35;;;;;;;50.10;20.52;;;;;;;20.14;100.00;101276.63;5054144;28;20087;-77
2022/06/27 09:34:09;;;;;;;46.30;19.67;;;;;;;19.99;100.00;101271.75;5054171;28;20035;-77
2022/06/27 09:36:52;;;;;;;52.45;19.98;;;;;;;20.28;100.00;101280.59;5054185;28;20029;-77
2022/06/27 09:39:28;;;;;;;;;;;;;;;20.08;100.00;101278.19;5054647;28;20025;-77
2022/06/27 09:42:20;;;;;;;37.40;15.93;;;;;;;19.99;100.00;101291.22;5054052;28;19970;-77
2022/06/27 09:44:47;;;;;;;39.78;14.65;;;;;;;19.93;100.00;101289.13;5054964;28;20045;-77
2022/06/27 09:47:18;;;;;;;41.13;16.50;;;;;;;20.05;100.00;101286.84;5055140;28;20040;-77
2022/06/27 09:49:56;;;;;;;47.92;19.42;;;;;;;20.14;100.00;101280.28;5055238;28;20036;-77
2022/06/27 09:52:25;;;;;;;41.85;15.07;;;;;;;;;;5037309;28;20021;-77
2022/06/27 09:54:53;;;;;;;34.80;13.07;;;;;;;20.13;100.00;101263.75;5053859;28;20032;-77
2022/06/27 09:57:20;;;;;;;28.75;10.20;;;;;;;19.95;100.00;101263.94;5053690;28;20439;-77
2022/06/27 09:59:48;;;;;;;25.95;10.38;;;;;;;20.00;100.00;101267.06;5054901;28;20044;-77
2022/06/27 10:02:16;;;;;;;39.40;15.23;;;;;;;20.39;100.00;101271.91;5054002;28;20028;-77
2022/06/27 10:04:44;;;;;;;36.42;16.95;;;;;;;20.24;100.00;101266.19;5055115;28;20037;-77
2022/06/27 10:07:11;;;;;;;31.75;15.48;;;;;;;20.81;100.00;101267.13;5037224;28;20379;-77
2022/06/27 10:09:38;;;;;;;39.08;14.90;;;;;;;21.21;100.00;101270.81;5054661;28;20538;-77
2022/06/27 10:12:36;;;;;;;32.80;14.25;;;;;;;20.97;100.00;101258.72;5037209;28;20064;-77
2022/06/27 10:15:10;;;;;;;34.83;15.07;;;;;;;20.84;100.00;101250.97;5054210;28;20052;-77
2022/06/27 10:17:49;;;;;;;31.08;13.00;;;;;;;21.24;100.00;101249.03;5054562;28;20061;-77
2022/06/27 10:20:27;;;;;;;40.38;15.20;;;;;;;21.23;100.00;101240.88;5055364;28;20392;-77
2022/06/27 10:23:10;;;;;;;48.28;19.65;;;;;;;20.83;100.00;101253.94;5054516;28;20051;-77
2022/06/27 10:25:38;;;;;;;44.63;22.25;;;;;;;20.81;100.00;101250.44;5053267;28;20033;-77
2022/06/27 10:28:10;;;;;;;53.75;23.88;;;;;;;20.86;100.00;101248.00;5053031;28;20098;-77
2022/06/27 10:30:43;;;;;;;45.92;21.40;;;;;;;20.75;100.00;101243.69;5053229;28;20047;-77
2022/06/27 10:33:21;;;;;;;52.10;20.73;;;;;;;20.59;100.00;101239.00;5053091;28;20025;-77
2022/06/27 10:38:22;;;;;;;53.75;25.40;;;;;;;21.27;100.00;101231.97;5054215;28;20477;-77
2022/06/27 10:40:50;;;;;;;61.35;27.55;;;;;;;20.76;100.00;101231.53;5036236;28;20074;-77
2022/06/27 10:43:44;;;;;;;56.25;24.42;;;;;;;20.96;100.00;101226.38;5053044;28;20045;-76
2022/06/27 10:46:09;;;;;;;59.50;22.25;;;;;;;20.91;100.00;101232.50;5052908;28;20083;-77
2022/06/27 10:48:45;;;;;;;42.40;21.55;;;;;;;21.17;100.00;101233.22;5053953;28;20460;-77
2022/06/27 10:51:33;;;;;;;47.20;20.33;;;;;;;22.06;100.00;101244.84;5036127;28;20068;-77
2022/06/27 10:53:59;;;;;;;41.75;21.90;;;;;;;21.56;100.00;101240.69;5053957;28;20040;-77
2022/06/27 10:56:27;;;;;;;36.53;19.73;;;;;;;21.73;100.00;101247.06;5052788;28;20028;-77
2022/06/27 10:58:53;;;;;;;35.53;18.90;;;;;;;21.05;100.00;101249.47;5036053;28;20037;-76
2022/06/27 11:01:19;;;;;;;45.75;21.42;;;;;;;21.15;100.00;101246.47;5053861;28;20094;-76
2022/06/27 11:03:46;;;;;;;37.90;19.25;;;;;;;21.66;100.00;101250.56;5053654;28;20040;-76
2022/06/27 11:06:13;;;;;;;38.15;19.00;;;;;;;21.23;100.00;101249.22;5052457;28;20532;-76